sensor_id;sensor_type;location;lat;lon;timestamp;P1;durP1;ratioP1;P2;durP2;ratioP2
36355;SDS011;22384;54.302;18.596;2024-01-10T00:01:59;10.02;;;5.88;;
36355;SDS011;22384;54.302;18.596;2024-01-10T00:04:25;17.90;;;9.10;;
36355;SDS011;22384;54.302;18.596;2024-01-10T00:06:51;15.00;;;7.45;;
36355;SDS011;22384;54.302;18.596;2024-01-10T00:09:17;11.77;;;5.70;;
36355;SDS011;22384;54.302;18.596;2024-01-10T00:11:44;12.43;;;7.30;;
36355;SDS011;22384;54.302;18.596;2024-01-10T00:14:10;15.07;;;7.53;;
36355;SDS011;22384;54.302;18.596;2024-01-10T00:16:36;17.45;;;8.32;;
36355;SDS011;22384;54.302;18.596;2024-01-10T00:19:02;15.68;;;8.55;;
36355;SDS011;22384;54.302;18.596;2024-01-10T00:21:28;11.85;;;7.43;;
36355;SDS011;22384;54.302;18.596;2024-01-10T00:23:54;17.30;;;8.32;;
36355;SDS011;22384;54.302;18.596;2024-01-10T00:26:20;16.50;;;8.00;;
36355;SDS011;22384;54.302;18.596;2024-01-10T00:28:46;13.30;;;7.75;;
36355;SDS011;22384;54.302;18.596;2024-01-10T00:31:13;16.23;;;8.02;;
36355;SDS011;22384;54.302;18.596;2024-01-10T00:33:39;11.93;;;7.25;;
36355;SDS011;22384;54.302;18.596;2024-01-10T00:36:05;14.75;;;7.57;;
36355;SDS011;22384;54.302;18.596;2024-01-10T00:38:32;13.52;;;7.75;;
36355;SDS011;22384;54.302;18.596;2024-01-10T00:40:58;14.45;;;7.57;;
36355;SDS011;22384;54.302;18.596;2024-01-10T00:43:24;11.02;;;6.65;;
36355;SDS011;22384;54.302;18.596;2024-01-10T00:45:50;12.20;;;7.28;;
36355;SDS011;22384;54.302;18.596;2024-01-10T00:48:16;14.65;;;7.32;;
36355;SDS011;22384;54.302;18.596;2024-01-10T00:50:45;15.82;;;8.40;;
36355;SDS011;22384;54.302;18.596;2024-01-10T00:53:11;13.52;;;7.97;;
36355;SDS011;22384;54.302;18.596;2024-01-10T00:55:38;14.48;;;7.03;;
36355;SDS011;22384;54.302;18.596;2024-01-10T00:58:04;11.93;;;7.45;;
36355;SDS011;22384;54.302;18.596;2024-01-10T01:00:31;14.68;;;8.50;;
36355;SDS011;22384;54.302;18.596;2024-01-10T01:02:58;12.77;;;7.63;;
36355;SDS011;22384;54.302;18.596;2024-01-10T01:05:24;13.18;;;7.13;;
36355;SDS011;22384;54.302;18.596;2024-01-10T01:07:50;14.88;;;7.22;;
36355;SDS011;22384;54.302;18.596;2024-01-10T01:10:16;12.57;;;7.68;;
36355;SDS011;22384;54.302;18.596;2024-01-10T01:12:42;13.75;;;8.05;;
36355;SDS011;22384;54.302;18.596;2024-01-10T01:15:08;14.57;;;7.60;;
36355;SDS011;22384;54.302;18.596;2024-01-10T01:17:34;11.82;;;7.28;;
36355;SDS011;22384;54.302;18.596;2024-01-10T01:20:00;11.45;;;6.85;;
36355;SDS011;22384;54.302;18.596;2024-01-10T01:22:29;12.65;;;7.45;;
36355;SDS011;22384;54.302;18.596;2024-01-10T01:24:56;17.42;;;8.25;;
36355;SDS011;22384;54.302;18.596;2024-01-10T01:27:22;11.95;;;7.60;;
36355;SDS011;22384;54.302;18.596;2024-01-10T01:29:48;14.30;;;8.40;;
36355;SDS011;22384;54.302;18.596;2024-01-10T01:32:14;13.20;;;8.20;;
36355;SDS011;22384;54.302;18.596;2024-01-10T01:34:40;15.57;;;8.65;;
36355;SDS011;22384;54.302;18.596;2024-01-10T01:37:06;14.88;;;9.10;;
36355;SDS011;22384;54.302;18.596;2024-01-10T01:39:32;18.33;;;9.23;;
36355;SDS011;22384;54.302;18.596;2024-01-10T01:41:58;16.08;;;8.88;;
36355;SDS011;22384;54.302;18.596;2024-01-10T01:44:24;14.90;;;8.68;;
36355;SDS011;22384;54.302;18.596;2024-01-10T01:46:50;15.93;;;8.88;;
36355;SDS011;22384;54.302;18.596;2024-01-10T01:49:16;14.05;;;8.73;;
36355;SDS011;22384;54.302;18.596;2024-01-10T01:51:43;16.65;;;8.07;;
36355;SDS011;22384;54.302;18.596;2024-01-10T01:54:09;13.65;;;7.40;;
36355;SDS011;22384;54.302;18.596;2024-01-10T01:56:36;14.57;;;8.25;;
36355;SDS011;22384;54.302;18.596;2024-01-10T01:59:05;14.60;;;7.82;;
36355;SDS011;22384;54.302;18.596;2024-01-10T02:01:31;13.60;;;8.48;;
36355;SDS011;22384;54.302;18.596;2024-01-10T02:03:58;12.18;;;7.50;;
36355;SDS011;22384;54.302;18.596;2024-01-10T02:06:24;13.63;;;8.45;;
36355;SDS011;22384;54.302;18.596;2024-01-10T02:08:50;13.40;;;8.30;;
36355;SDS011;22384;54.302;18.596;2024-01-10T02:11:17;14.98;;;8.70;;
36355;SDS011;22384;54.302;18.596;2024-01-10T02:13:43;14.95;;;8.35;;
36355;SDS011;22384;54.302;18.596;2024-01-10T02:16:09;14.73;;;8.77;;
36355;SDS011;22384;54.302;18.596;2024-01-10T02:18:35;11.80;;;6.85;;
36355;SDS011;22384;54.302;18.596;2024-01-10T02:21:01;12.75;;;7.63;;
36355;SDS011;22384;54.302;18.596;2024-01-10T02:23:28;14.35;;;7.40;;
36355;SDS011;22384;54.302;18.596;2024-01-10T02:25:54;12.10;;;7.38;;
36355;SDS011;22384;54.302;18.596;2024-01-10T02:28:20;13.15;;;7.20;;
36355;SDS011;22384;54.302;18.596;2024-01-10T02:30:48;16.15;;;7.97;;
36355;SDS011;22384;54.302;18.596;2024-01-10T02:33:14;11.10;;;6.95;;
36355;SDS011;22384;54.302;18.596;2024-01-10T02:35:40;15.50;;;8.23;;
36355;SDS011;22384;54.302;18.596;2024-01-10T02:38:06;15.13;;;8.05;;
36355;SDS011;22384;54.302;18.596;2024-01-10T02:40:32;13.32;;;8.00;;
36355;SDS011;22384;54.302;18.596;2024-01-10T02:42:58;14.15;;;7.45;;
36355;SDS011;22384;54.302;18.596;2024-01-10T02:45:24;10.80;;;6.93;;
36355;SDS011;22384;54.302;18.596;2024-01-10T02:47:50;11.38;;;6.97;;
36355;SDS011;22384;54.302;18.596;2024-01-10T02:50:16;10.40;;;6.53;;
36355;SDS011;22384;54.302;18.596;2024-01-10T02:52:42;12.52;;;7.78;;
36355;SDS011;22384;54.302;18.596;2024-01-10T02:55:08;13.73;;;6.88;;
36355;SDS011;22384;54.302;18.596;2024-01-10T02:57:34;12.15;;;7.47;;
36355;SDS011;22384;54.302;18.596;2024-01-10T03:00:00;14.27;;;7.43;;
36355;SDS011;22384;54.302;18.596;2024-01-10T03:02:26;12.50;;;7.20;;
36355;SDS011;22384;54.302;18.596;2024-01-10T03:04:52;12.88;;;6.75;;
36355;SDS011;22384;54.302;18.596;2024-01-10T03:07:18;11.63;;;6.75;;
36355;SDS011;22384;54.302;18.596;2024-01-10T03:09:44;10.45;;;7.13;;
36355;SDS011;22384;54.302;18.596;2024-01-10T03:12:11;13.02;;;6.55;;
36355;SDS011;22384;54.302;18.596;2024-01-10T03:14:37;11.20;;;7.43;;
36355;SDS011;22384;54.302;18.596;2024-01-10T03:17:03;10.48;;;6.45;;
36355;SDS011;22384;54.302;18.596;2024-01-10T03:19:30;9.48;;;6.43;;
36355;SDS011;22384;54.302;18.596;2024-01-10T03:21:56;10.40;;;6.95;;
36355;SDS011;22384;54.302;18.596;2024-01-10T03:24:22;10.55;;;6.60;;
36355;SDS011;22384;54.302;18.596;2024-01-10T03:26:51;12.20;;;8.03;;
36355;SDS011;22384;54.302;18.596;2024-01-10T03:29:17;11.10;;;7.03;;
36355;SDS011;22384;54.302;18.596;2024-01-10T03:31:43;11.80;;;6.95;;
36355;SDS011;22384;54.302;18.596;2024-01-10T03:34:09;13.02;;;7.22;;
36355;SDS011;22384;54.302;18.596;2024-01-10T03:36:35;11.48;;;7.22;;
36355;SDS011;22384;54.302;18.596;2024-01-10T03:39:01;13.18;;;6.95;;
36355;SDS011;22384;54.302;18.596;2024-01-10T03:41:27;9.57;;;6.80;;
36355;SDS011;22384;54.302;18.596;2024-01-10T03:43:53;9.40;;;5.85;;
36355;SDS011;22384;54.302;18.596;2024-01-10T03:46:19;13.63;;;7.05;;
36355;SDS011;22384;54.302;18.596;2024-01-10T03:48:45;10.13;;;6.47;;
36355;SDS011;22384;54.302;18.596;2024-01-10T03:51:17;13.15;;;6.82;;
36355;SDS011;22384;54.302;18.596;2024-01-10T03:53:44;11.13;;;6.70;;
36355;SDS011;22384;54.302;18.596;2024-01-10T03:56:10;13.20;;;7.07;;
36355;SDS011;22384;54.302;18.596;2024-01-10T03:58:36;12.30;;;6.63;;
36355;SDS011;22384;54.302;18.596;2024-01-10T04:01:05;10.65;;;6.75;;
36355;SDS011;22384;54.302;18.596;2024-01-10T04:03:32;10.20;;;6.70;;
36355;SDS011;22384;54.302;18.596;2024-01-10T04:05:58;9.32;;;6.68;;
36355;SDS011;22384;54.302;18.596;2024-01-10T04:08:24;9.48;;;6.53;;
36355;SDS011;22384;54.302;18.596;2024-01-10T04:10:50;10.20;;;7.18;;
36355;SDS011;22384;54.302;18.596;2024-01-10T04:13:16;13.70;;;7.47;;
36355;SDS011;22384;54.302;18.596;2024-01-10T04:15:42;12.70;;;7.78;;
36355;SDS011;22384;54.302;18.596;2024-01-10T04:18:08;11.45;;;7.25;;
36355;SDS011;22384;54.302;18.596;2024-01-10T04:20:34;13.85;;;8.10;;
36355;SDS011;22384;54.302;18.596;2024-01-10T04:23:00;11.18;;;7.22;;
36355;SDS011;22384;54.302;18.596;2024-01-10T04:25:26;14.70;;;8.00;;
36355;SDS011;22384;54.302;18.596;2024-01-10T04:27:52;14.82;;;7.40;;
36355;SDS011;22384;54.302;18.596;2024-01-10T04:30:18;12.07;;;7.65;;
36355;SDS011;22384;54.302;18.596;2024-01-10T04:32:44;12.35;;;7.47;;
36355;SDS011;22384;54.302;18.596;2024-01-10T04:35:10;12.57;;;7.88;;
36355;SDS011;22384;54.302;18.596;2024-01-10T04:37:36;10.27;;;7.15;;
36355;SDS011;22384;54.302;18.596;2024-01-10T04:40:03;18.77;;;8.70;;
36355;SDS011;22384;54.302;18.596;2024-01-10T04:42:29;11.25;;;8.00;;
36355;SDS011;22384;54.302;18.596;2024-01-10T04:44:55;16.67;;;7.38;;
36355;SDS011;22384;54.302;18.596;2024-01-10T04:47:21;13.30;;;8.27;;
36355;SDS011;22384;54.302;18.596;2024-01-10T04:49:47;15.40;;;9.07;;
36355;SDS011;22384;54.302;18.596;2024-01-10T04:52:13;12.43;;;8.05;;
36355;SDS011;22384;54.302;18.596;2024-01-10T04:54:39;13.32;;;7.25;;
36355;SDS011;22384;54.302;18.596;2024-01-10T04:57:05;9.07;;;6.45;;
36355;SDS011;22384;54.302;18.596;2024-01-10T04:59:32;12.38;;;6.78;;
36355;SDS011;22384;54.302;18.596;2024-01-10T05:01:58;12.90;;;7.75;;
36355;SDS011;22384;54.302;18.596;2024-01-10T05:04:25;9.05;;;6.10;;
36355;SDS011;22384;54.302;18.596;2024-01-10T05:06:51;11.25;;;7.25;;
36355;SDS011;22384;54.302;18.596;2024-01-10T05:09:17;10.82;;;6.85;;
36355;SDS011;22384;54.302;18.596;2024-01-10T05:11:43;9.60;;;7.00;;
36355;SDS011;22384;54.302;18.596;2024-01-10T05:14:12;10.07;;;6.53;;
36355;SDS011;22384;54.302;18.596;2024-01-10T05:16:38;11.25;;;7.10;;
36355;SDS011;22384;54.302;18.596;2024-01-10T05:19:04;10.07;;;6.75;;
36355;SDS011;22384;54.302;18.596;2024-01-10T05:21:30;12.15;;;7.20;;
36355;SDS011;22384;54.302;18.596;2024-01-10T05:23:57;9.18;;;6.53;;
36355;SDS011;22384;54.302;18.596;2024-01-10T05:26:23;9.45;;;6.55;;
36355;SDS011;22384;54.302;18.596;2024-01-10T05:28:49;10.93;;;6.80;;
36355;SDS011;22384;54.302;18.596;2024-01-10T05:31:15;12.68;;;6.13;;
36355;SDS011;22384;54.302;18.596;2024-01-10T05:33:41;8.05;;;5.90;;
36355;SDS011;22384;54.302;18.596;2024-01-10T05:36:07;8.85;;;5.75;;
36355;SDS011;22384;54.302;18.596;2024-01-10T05:38:36;8.48;;;5.65;;
36355;SDS011;22384;54.302;18.596;2024-01-10T05:41:02;10.63;;;5.65;;
36355;SDS011;22384;54.302;18.596;2024-01-10T05:43:28;6.07;;;4.60;;
36355;SDS011;22384;54.302;18.596;2024-01-10T05:45:54;9.38;;;5.60;;
36355;SDS011;22384;54.302;18.596;2024-01-10T05:48:21;10.15;;;5.88;;
36355;SDS011;22384;54.302;18.596;2024-01-10T05:50:47;13.25;;;5.93;;
36355;SDS011;22384;54.302;18.596;2024-01-10T05:53:13;9.77;;;6.55;;
36355;SDS011;22384;54.302;18.596;2024-01-10T05:55:42;12.93;;;7.50;;
36355;SDS011;22384;54.302;18.596;2024-01-10T05:58:08;8.35;;;5.95;;
36355;SDS011;22384;54.302;18.596;2024-01-10T06:00:34;9.93;;;6.85;;
36355;SDS011;22384;54.302;18.596;2024-01-10T06:03:00;10.68;;;6.38;;
36355;SDS011;22384;54.302;18.596;2024-01-10T06:05:26;11.15;;;7.00;;
36355;SDS011;22384;54.302;18.596;2024-01-10T06:07:52;9.70;;;6.82;;
36355;SDS011;22384;54.302;18.596;2024-01-10T06:10:18;8.25;;;6.10;;
36355;SDS011;22384;54.302;18.596;2024-01-10T06:12:44;8.85;;;6.28;;
36355;SDS011;22384;54.302;18.596;2024-01-10T06:15:10;11.85;;;6.82;;
36355;SDS011;22384;54.302;18.596;2024-01-10T06:17:37;11.50;;;7.55;;
36355;SDS011;22384;54.302;18.596;2024-01-10T06:20:03;9.95;;;6.95;;
36355;SDS011;22384;54.302;18.596;2024-01-10T06:22:29;11.98;;;7.47;;
36355;SDS011;22384;54.302;18.596;2024-01-10T06:24:55;9.02;;;6.20;;
36355;SDS011;22384;54.302;18.596;2024-01-10T06:27:21;14.25;;;7.40;;
36355;SDS011;22384;54.302;18.596;2024-01-10T06:29:47;13.55;;;6.15;;
36355;SDS011;22384;54.302;18.596;2024-01-10T06:32:15;12.00;;;5.55;;
36355;SDS011;22384;54.302;18.596;2024-01-10T06:34:41;10.30;;;6.40;;
36355;SDS011;22384;54.302;18.596;2024-01-10T06:37:07;8.68;;;6.03;;
36355;SDS011;22384;54.302;18.596;2024-01-10T06:39:33;10.65;;;6.95;;
36355;SDS011;22384;54.302;18.596;2024-01-10T06:41:59;8.65;;;6.57;;
36355;SDS011;22384;54.302;18.596;2024-01-10T06:44:25;12.25;;;7.32;;
36355;SDS011;22384;54.302;18.596;2024-01-10T06:46:53;9.95;;;6.80;;
36355;SDS011;22384;54.302;18.596;2024-01-10T06:49:19;11.30;;;6.70;;
36355;SDS011;22384;54.302;18.596;2024-01-10T06:51:46;10.85;;;6.03;;
36355;SDS011;22384;54.302;18.596;2024-01-10T06:54:12;12.50;;;7.45;;
36355;SDS011;22384;54.302;18.596;2024-01-10T06:56:38;8.07;;;6.05;;
36355;SDS011;22384;54.302;18.596;2024-01-10T06:59:05;9.90;;;6.35;;
36355;SDS011;22384;54.302;18.596;2024-01-10T07:01:31;8.65;;;5.88;;
36355;SDS011;22384;54.302;18.596;2024-01-10T07:03:57;11.85;;;7.30;;
36355;SDS011;22384;54.302;18.596;2024-01-10T07:06:23;10.15;;;6.28;;
36355;SDS011;22384;54.302;18.596;2024-01-10T07:08:49;11.52;;;7.03;;
36355;SDS011;22384;54.302;18.596;2024-01-10T07:11:19;12.23;;;6.90;;
36355;SDS011;22384;54.302;18.596;2024-01-10T07:13:45;11.98;;;7.55;;
36355;SDS011;22384;54.302;18.596;2024-01-10T07:16:11;11.27;;;7.43;;
36355;SDS011;22384;54.302;18.596;2024-01-10T07:18:40;14.32;;;7.38;;
36355;SDS011;22384;54.302;18.596;2024-01-10T07:21:06;10.30;;;6.75;;
36355;SDS011;22384;54.302;18.596;2024-01-10T07:23:34;13.77;;;7.85;;
36355;SDS011;22384;54.302;18.596;2024-01-10T07:26:00;13.85;;;8.90;;
36355;SDS011;22384;54.302;18.596;2024-01-10T07:28:26;13.10;;;7.65;;
36355;SDS011;22384;54.302;18.596;2024-01-10T07:30:52;12.43;;;7.78;;
36355;SDS011;22384;54.302;18.596;2024-01-10T07:33:18;11.77;;;7.85;;
36355;SDS011;22384;54.302;18.596;2024-01-10T07:35:45;12.32;;;8.50;;
36355;SDS011;22384;54.302;18.596;2024-01-10T07:38:11;13.35;;;7.93;;
36355;SDS011;22384;54.302;18.596;2024-01-10T07:40:37;15.63;;;8.93;;
36355;SDS011;22384;54.302;18.596;2024-01-10T07:43:03;11.20;;;7.20;;
36355;SDS011;22384;54.302;18.596;2024-01-10T07:45:29;11.52;;;7.15;;
36355;SDS011;22384;54.302;18.596;2024-01-10T07:47:55;10.98;;;7.28;;
36355;SDS011;22384;54.302;18.596;2024-01-10T07:50:21;10.55;;;6.22;;
36355;SDS011;22384;54.302;18.596;2024-01-10T07:52:52;8.35;;;5.28;;
36355;SDS011;22384;54.302;18.596;2024-01-10T07:55:18;10.32;;;6.63;;
36355;SDS011;22384;54.302;18.596;2024-01-10T07:57:44;8.75;;;5.75;;
36355;SDS011;22384;54.302;18.596;2024-01-10T08:00:10;11.88;;;5.88;;
36355;SDS011;22384;54.302;18.596;2024-01-10T08:02:37;7.45;;;5.35;;
36355;SDS011;22384;54.302;18.596;2024-01-10T08:05:04;10.15;;;5.82;;
36355;SDS011;22384;54.302;18.596;2024-01-10T08:07:30;8.00;;;5.20;;
36355;SDS011;22384;54.302;18.596;2024-01-10T08:09:58;7.55;;;5.53;;
36355;SDS011;22384;54.302;18.596;2024-01-10T08:12:24;11.57;;;5.32;;
36355;SDS011;22384;54.302;18.596;2024-01-10T08:14:50;10.13;;;6.22;;
36355;SDS011;22384;54.302;18.596;2024-01-10T08:17:16;9.65;;;6.07;;
36355;SDS011;22384;54.302;18.596;2024-01-10T08:19:42;10.35;;;5.68;;
36355;SDS011;22384;54.302;18.596;2024-01-10T08:22:08;9.63;;;5.78;;
36355;SDS011;22384;54.302;18.596;2024-01-10T08:24:34;9.95;;;6.55;;
36355;SDS011;22384;54.302;18.596;2024-01-10T08:27:00;12.63;;;6.25;;
36355;SDS011;22384;54.302;18.596;2024-01-10T08:29:27;12.57;;;7.03;;
36355;SDS011;22384;54.302;18.596;2024-01-10T08:31:56;11.65;;;7.60;;
36355;SDS011;22384;54.302;18.596;2024-01-10T08:34:22;9.85;;;6.50;;
36355;SDS011;22384;54.302;18.596;2024-01-10T08:36:49;13.38;;;7.70;;
36355;SDS011;22384;54.302;18.596;2024-01-10T08:39:18;16.02;;;8.80;;
36355;SDS011;22384;54.302;18.596;2024-01-10T08:41:45;12.50;;;7.70;;
36355;SDS011;22384;54.302;18.596;2024-01-10T08:44:11;15.93;;;7.93;;
36355;SDS011;22384;54.302;18.596;2024-01-10T08:46:37;16.77;;;7.57;;
36355;SDS011;22384;54.302;18.596;2024-01-10T08:49:03;20.73;;;9.68;;
36355;SDS011;22384;54.302;18.596;2024-01-10T08:51:29;17.10;;;10.48;;
36355;SDS011;22384;54.302;18.596;2024-01-10T08:53:55;25.67;;;9.85;;
36355;SDS011;22384;54.302;18.596;2024-01-10T08:56:21;17.30;;;8.52;;
36355;SDS011;22384;54.302;18.596;2024-01-10T08:58:47;14.77;;;8.52;;
36355;SDS011;22384;54.302;18.596;2024-01-10T09:01:14;18.48;;;9.57;;
36355;SDS011;22384;54.302;18.596;2024-01-10T09:03:40;16.10;;;8.25;;
36355;SDS011;22384;54.302;18.596;2024-01-10T09:06:06;15.02;;;8.93;;
36355;SDS011;22384;54.302;18.596;2024-01-10T09:08:34;15.00;;;8.73;;
36355;SDS011;22384;54.302;18.596;2024-01-10T09:11:01;14.57;;;8.73;;
36355;SDS011;22384;54.302;18.596;2024-01-10T09:13:28;17.67;;;9.88;;
36355;SDS011;22384;54.302;18.596;2024-01-10T09:15:54;21.90;;;10.65;;
36355;SDS011;22384;54.302;18.596;2024-01-10T09:18:20;16.77;;;10.77;;
36355;SDS011;22384;54.302;18.596;2024-01-10T09:20:46;17.70;;;9.40;;
36355;SDS011;22384;54.302;18.596;2024-01-10T09:23:13;17.33;;;9.48;;
36355;SDS011;22384;54.302;18.596;2024-01-10T09:25:39;16.85;;;9.30;;
36355;SDS011;22384;54.302;18.596;2024-01-10T09:28:05;16.15;;;9.10;;
36355;SDS011;22384;54.302;18.596;2024-01-10T09:30:32;16.17;;;8.50;;
36355;SDS011;22384;54.302;18.596;2024-01-10T09:32:59;18.58;;;8.98;;
36355;SDS011;22384;54.302;18.596;2024-01-10T09:35:25;14.40;;;9.43;;
36355;SDS011;22384;54.302;18.596;2024-01-10T09:37:51;15.88;;;9.35;;
36355;SDS011;22384;54.302;18.596;2024-01-10T09:40:19;16.90;;;9.27;;
36355;SDS011;22384;54.302;18.596;2024-01-10T09:42:48;16.35;;;9.60;;
36355;SDS011;22384;54.302;18.596;2024-01-10T09:45:19;15.90;;;9.15;;
36355;SDS011;22384;54.302;18.596;2024-01-10T09:47:49;16.70;;;9.27;;
36355;SDS011;22384;54.302;18.596;2024-01-10T09:50:16;11.88;;;7.30;;
36355;SDS011;22384;54.302;18.596;2024-01-10T09:52:46;14.43;;;9.30;;
36355;SDS011;22384;54.302;18.596;2024-01-10T09:55:22;15.75;;;9.85;;
36355;SDS011;22384;54.302;18.596;2024-01-10T09:57:48;20.52;;;9.70;;
36355;SDS011;22384;54.302;18.596;2024-01-10T10:00:15;15.20;;;9.38;;
36355;SDS011;22384;54.302;18.596;2024-01-10T10:02:41;17.83;;;9.50;;
36355;SDS011;22384;54.302;18.596;2024-01-10T10:05:08;14.88;;;8.48;;
36355;SDS011;22384;54.302;18.596;2024-01-10T10:07:47;16.55;;;8.40;;
36355;SDS011;22384;54.302;18.596;2024-01-10T10:10:13;16.88;;;9.02;;
36355;SDS011;22384;54.302;18.596;2024-01-10T10:15:10;17.27;;;9.00;;
36355;SDS011;22384;54.302;18.596;2024-01-10T10:17:36;16.42;;;10.25;;
36355;SDS011;22384;54.302;18.596;2024-01-10T10:20:05;14.25;;;8.52;;
36355;SDS011;22384;54.302;18.596;2024-01-10T10:22:31;15.05;;;8.18;;
36355;SDS011;22384;54.302;18.596;2024-01-10T10:24:57;13.50;;;8.50;;
36355;SDS011;22384;54.302;18.596;2024-01-10T10:27:23;16.13;;;9.00;;
36355;SDS011;22384;54.302;18.596;2024-01-10T10:29:49;14.75;;;8.77;;
36355;SDS011;22384;54.302;18.596;2024-01-10T10:32:15;18.88;;;8.75;;
36355;SDS011;22384;54.302;18.596;2024-01-10T10:34:43;16.65;;;9.25;;
36355;SDS011;22384;54.302;18.596;2024-01-10T10:37:09;19.35;;;9.23;;
36355;SDS011;22384;54.302;18.596;2024-01-10T10:39:35;15.05;;;9.40;;
36355;SDS011;22384;54.302;18.596;2024-01-10T10:42:02;17.20;;;9.88;;
36355;SDS011;22384;54.302;18.596;2024-01-10T10:44:29;18.35;;;8.93;;
36355;SDS011;22384;54.302;18.596;2024-01-10T10:47:00;14.73;;;8.32;;
36355;SDS011;22384;54.302;18.596;2024-01-10T10:49:47;18.30;;;8.63;;
36355;SDS011;22384;54.302;18.596;2024-01-10T10:52:16;14.48;;;8.88;;
36355;SDS011;22384;54.302;18.596;2024-01-10T10:54:42;13.23;;;8.07;;
36355;SDS011;22384;54.302;18.596;2024-01-10T10:57:09;13.27;;;8.25;;
36355;SDS011;22384;54.302;18.596;2024-01-10T10:59:35;15.38;;;9.00;;
36355;SDS011;22384;54.302;18.596;2024-01-10T11:02:02;16.30;;;8.30;;
36355;SDS011;22384;54.302;18.596;2024-01-10T11:04:28;15.10;;;8.48;;
36355;SDS011;22384;54.302;18.596;2024-01-10T11:06:54;15.80;;;9.32;;
36355;SDS011;22384;54.302;18.596;2024-01-10T11:09:20;12.60;;;8.85;;
36355;SDS011;22384;54.302;18.596;2024-01-10T11:35:20;15.95;;;9.15;;
36355;SDS011;22384;54.302;18.596;2024-01-10T11:40:49;12.82;;;6.07;;
36355;SDS011;22384;54.302;18.596;2024-01-10T11:43:18;15.90;;;8.02;;
36355;SDS011;22384;54.302;18.596;2024-01-10T11:45:51;14.73;;;7.80;;
36355;SDS011;22384;54.302;18.596;2024-01-10T12:34:46;15.85;;;8.88;;
36355;SDS011;22384;54.302;18.596;2024-01-10T12:37:16;13.60;;;7.95;;
36355;SDS011;22384;54.302;18.596;2024-01-10T12:39:45;13.95;;;8.65;;
36355;SDS011;22384;54.302;18.596;2024-01-10T12:42:12;14.10;;;7.47;;
36355;SDS011;22384;54.302;18.596;2024-01-10T12:44:42;18.42;;;8.60;;
36355;SDS011;22384;54.302;18.596;2024-01-10T12:55:51;14.18;;;8.02;;
36355;SDS011;22384;54.302;18.596;2024-01-10T13:18:19;18.27;;;9.40;;
36355;SDS011;22384;54.302;18.596;2024-01-10T13:20:45;13.82;;;8.85;;
36355;SDS011;22384;54.302;18.596;2024-01-10T13:23:12;12.50;;;7.88;;
36355;SDS011;22384;54.302;18.596;2024-01-10T13:25:40;16.83;;;10.40;;
36355;SDS011;22384;54.302;18.596;2024-01-10T13:33:59;17.35;;;9.35;;
36355;SDS011;22384;54.302;18.596;2024-01-10T13:36:25;13.73;;;8.52;;
36355;SDS011;22384;54.302;18.596;2024-01-10T13:47:38;18.92;;;9.98;;
36355;SDS011;22384;54.302;18.596;2024-01-10T13:50:04;13.63;;;9.15;;
36355;SDS011;22384;54.302;18.596;2024-01-10T13:52:31;14.95;;;9.05;;
36355;SDS011;22384;54.302;18.596;2024-01-10T14:07:04;16.27;;;9.15;;
36355;SDS011;22384;54.302;18.596;2024-01-10T14:09:31;19.17;;;8.75;;
36355;SDS011;22384;54.302;18.596;2024-01-10T14:12:00;16.75;;;9.05;;
36355;SDS011;22384;54.302;18.596;2024-01-10T14:14:26;15.95;;;9.43;;
36355;SDS011;22384;54.302;18.596;2024-01-10T14:16:52;15.88;;;9.80;;
36355;SDS011;22384;54.302;18.596;2024-01-10T14:19:18;18.30;;;9.60;;
36355;SDS011;22384;54.302;18.596;2024-01-10T14:21:44;11.07;;;7.60;;
36355;SDS011;22384;54.302;18.596;2024-01-10T14:24:13;16.40;;;8.75;;
36355;SDS011;22384;54.302;18.596;2024-01-10T14:26:39;18.77;;;9.70;;
36355;SDS011;22384;54.302;18.596;2024-01-10T14:29:05;17.98;;;9.50;;
36355;SDS011;22384;54.302;18.596;2024-01-10T14:31:31;18.10;;;9.77;;
36355;SDS011;22384;54.302;18.596;2024-01-10T14:33:57;15.50;;;9.20;;
36355;SDS011;22384;54.302;18.596;2024-01-10T14:36:23;16.75;;;10.88;;
36355;SDS011;22384;54.302;18.596;2024-01-10T14:38:49;17.63;;;9.90;;
36355;SDS011;22384;54.302;18.596;2024-01-10T14:41:15;19.98;;;9.95;;
36355;SDS011;22384;54.302;18.596;2024-01-10T14:43:41;17.88;;;10.02;;
36355;SDS011;22384;54.302;18.596;2024-01-10T14:46:08;15.15;;;9.20;;
36355;SDS011;22384;54.302;18.596;2024-01-10T14:48:35;17.27;;;10.40;;
36355;SDS011;22384;54.302;18.596;2024-01-10T14:51:01;19.33;;;9.98;;
36355;SDS011;22384;54.302;18.596;2024-01-10T14:53:30;16.17;;;9.38;;
36355;SDS011;22384;54.302;18.596;2024-01-10T14:55:56;16.23;;;10.20;;
36355;SDS011;22384;54.302;18.596;2024-01-10T14:58:22;15.85;;;9.15;;
36355;SDS011;22384;54.302;18.596;2024-01-10T15:00:49;19.67;;;9.07;;
36355;SDS011;22384;54.302;18.596;2024-01-10T15:03:15;16.88;;;8.85;;
36355;SDS011;22384;54.302;18.596;2024-01-10T15:05:41;14.18;;;8.60;;
36355;SDS011;22384;54.302;18.596;2024-01-10T15:08:10;16.35;;;8.05;;
36355;SDS011;22384;54.302;18.596;2024-01-10T15:10:36;14.48;;;9.18;;
36355;SDS011;22384;54.302;18.596;2024-01-10T15:13:08;13.18;;;8.68;;
36355;SDS011;22384;54.302;18.596;2024-01-10T15:15:34;14.60;;;9.18;;
36355;SDS011;22384;54.302;18.596;2024-01-10T15:18:02;16.08;;;9.60;;
36355;SDS011;22384;54.302;18.596;2024-01-10T15:20:29;17.67;;;10.45;;
36355;SDS011;22384;54.302;18.596;2024-01-10T15:22:55;16.63;;;9.90;;
36355;SDS011;22384;54.302;18.596;2024-01-10T15:25:23;17.13;;;9.68;;
36355;SDS011;22384;54.302;18.596;2024-01-10T15:27:49;16.30;;;9.30;;
36355;SDS011;22384;54.302;18.596;2024-01-10T15:30:15;17.60;;;9.02;;
36355;SDS011;22384;54.302;18.596;2024-01-10T15:32:41;17.35;;;9.82;;
36355;SDS011;22384;54.302;18.596;2024-01-10T15:35:08;16.90;;;9.65;;
36355;SDS011;22384;54.302;18.596;2024-01-10T15:37:35;18.85;;;9.50;;
36355;SDS011;22384;54.302;18.596;2024-01-10T15:40:07;15.77;;;8.45;;
36355;SDS011;22384;54.302;18.596;2024-01-10T15:42:35;16.48;;;9.68;;
36355;SDS011;22384;54.302;18.596;2024-01-10T15:45:01;17.38;;;9.35;;
36355;SDS011;22384;54.302;18.596;2024-01-10T15:47:27;16.25;;;10.35;;
36355;SDS011;22384;54.302;18.596;2024-01-10T15:49:53;20.00;;;10.48;;
36355;SDS011;22384;54.302;18.596;2024-01-10T15:52:19;19.65;;;10.25;;
36355;SDS011;22384;54.302;18.596;2024-01-10T15:54:51;25.10;;;11.95;;
36355;SDS011;22384;54.302;18.596;2024-01-10T15:57:19;19.30;;;11.02;;
36355;SDS011;22384;54.302;18.596;2024-01-10T15:59:45;19.90;;;9.63;;
36355;SDS011;22384;54.302;18.596;2024-01-10T16:02:11;21.95;;;10.65;;
36355;SDS011;22384;54.302;18.596;2024-01-10T16:04:37;18.23;;;11.60;;
36355;SDS011;22384;54.302;18.596;2024-01-10T16:07:03;22.25;;;10.68;;
36355;SDS011;22384;54.302;18.596;2024-01-10T16:09:29;21.88;;;11.18;;
36355;SDS011;22384;54.302;18.596;2024-01-10T16:11:55;24.15;;;12.23;;
36355;SDS011;22384;54.302;18.596;2024-01-10T16:14:22;19.42;;;9.77;;
36355;SDS011;22384;54.302;18.596;2024-01-10T16:16:49;27.55;;;12.73;;
36355;SDS011;22384;54.302;18.596;2024-01-10T16:19:15;23.00;;;11.82;;
36355;SDS011;22384;54.302;18.596;2024-01-10T16:21:42;19.90;;;10.68;;
36355;SDS011;22384;54.302;18.596;2024-01-10T16:24:09;21.05;;;11.13;;
36355;SDS011;22384;54.302;18.596;2024-01-10T16:26:35;21.77;;;10.98;;
36355;SDS011;22384;54.302;18.596;2024-01-10T16:29:02;21.25;;;9.35;;